< VanCam Weather - WU Station History
^^
Station Historical Data
Daily Summary for April 16, 2018 Units:  Both    English   Metric
« Previous Day
Next Day »
Daily Weekly Monthly Yearly Custom
  High: Low: Average:
Temperature: 50.1 °F /  10.1 °C 40.0 °F /  4.4 °C 43.7 °F /  6.5 °C
Dew Point: 43.4 °F /  6.3 °C 38.4 °F /  3.6 °C 40.3 °F /  4.6 °C
Humidity: 95% 76% 88%
Wind Speed: 16.1mph /  25.9km/h - 4.9mph /  7.9km/h
Wind Gust: 16.1mph /  25.9km/h - -
Wind- - South
Pressure: 30.04 in /  1017.2 hPa 29.65 in /  1003.9 hPa -
Precipitation: 0.02 in /  0.51 mm    
Historical Graphs
 
 
Tabular Data for April 16, 2018
Time Temperature Dew Point Pressure Wind Wind Speed Wind Gust Humidity Rainfall Rate (Hourly) solar Conditions
00:00 42.2 °F /  5.7 °C 38.9 °F /  3.8 °C 29.65in /  1003.9hPa SSW 3.0mph /  4.8km/h 6.0mph /  9.7km/h 88% 0.00in /  0mm WeatherDisplay:10.37 W/m2 RA
00:05 42.2 °F /  5.7 °C 39.2 °F /  4 °C 29.65in /  1003.9hPa SSW 11.5mph /  18.5km/h 11.5mph /  18.5km/h 89% 0.00in /  0mm WeatherDisplay:10.37 W/m2 RA
00:10 42.0 °F /  5.6 °C 39.3 °F /  4.1 °C 29.65in /  1003.9hPa South 7.0mph /  11.3km/h 7.0mph /  11.3km/h 90% 0.00in /  0mm WeatherDisplay:10.37 W/m2 RA
00:15 41.8 °F /  5.4 °C 39.4 °F /  4.1 °C 29.65in /  1003.9hPa SSE 4.0mph /  6.4km/h 4.0mph /  6.4km/h 91% 0.00in /  0mm WeatherDisplay:10.37 W/m2 CLR
00:20 41.6 °F /  5.3 °C 39.2 °F /  4 °C 29.65in /  1003.9hPa SE 6.9mph /  11.1km/h 6.9mph /  11.1km/h 91% 0.00in /  0mm WeatherDisplay:10.37 W/m2 CLR
00:25 41.5 °F /  5.3 °C 39.3 °F /  4.1 °C 29.65in /  1003.9hPa SSE 2.0mph /  3.2km/h 5.0mph /  8km/h 92% 0.00in /  0mm WeatherDisplay:10.37 W/m2 CLR
00:30 41.4 °F /  5.2 °C 39.3 °F /  4.1 °C 29.65in /  1003.9hPa SE 8.1mph /  13km/h 8.1mph /  13km/h 92% 0.00in /  0mm WeatherDisplay:10.37 W/m2 CLR
00:35 41.3 °F /  5.2 °C 39.2 °F /  4 °C 29.65in /  1003.9hPa SSE 1.0mph /  1.6km/h 9.0mph /  14.5km/h 92% 0.00in /  0mm WeatherDisplay:10.37 W/m2 CLR
00:40 41.3 °F /  5.2 °C 39.2 °F /  4 °C 29.65in /  1003.9hPa SSE 2.0mph /  3.2km/h 6.0mph /  9.7km/h 92% 0.00in /  0mm WeatherDisplay:10.37 W/m2 CLR
00:45 41.3 °F /  5.2 °C 39.2 °F /  4 °C 29.65in /  1003.9hPa WSW 2.0mph /  3.2km/h 7.0mph /  11.3km/h 92% 0.00in /  0mm WeatherDisplay:10.37 W/m2 CLR
00:50 41.3 °F /  5.2 °C 39.2 °F /  4 °C 29.65in /  1003.9hPa West 3.0mph /  4.8km/h 7.0mph /  11.3km/h 92% 0.00in /  0mm WeatherDisplay:10.37 W/m2 CLR
00:55 41.3 °F /  5.2 °C 39.2 °F /  4 °C 29.66in /  1004.3hPa NE 5.0mph /  8km/h 12.0mph /  19.3km/h 92% 0.00in /  0mm WeatherDisplay:10.37 W/m2 CLR
01:00 41.4 °F /  5.2 °C 39.0 °F /  3.9 °C 29.66in /  1004.3hPa SE 9.2mph /  14.8km/h 9.2mph /  14.8km/h 91% 0.00in /  0mm WeatherDisplay:10.37 W/m2 CLR
01:05 41.4 °F /  5.2 °C 39.3 °F /  4.1 °C 29.66in /  1004.3hPa South 7.0mph /  11.3km/h 7.0mph /  11.3km/h 92% 0.00in /  0mm WeatherDisplay:10.37 W/m2 CLR
01:10 41.4 °F /  5.2 °C 39.0 °F /  3.9 °C 29.66in /  1004.3hPa South 6.0mph /  9.7km/h 6.0mph /  9.7km/h 91% 0.00in /  0mm WeatherDisplay:10.37 W/m2 CLR
01:15 41.3 °F /  5.2 °C 38.9 °F /  3.8 °C 29.67in /  1004.6hPa SW 3.5mph /  5.6km/h 3.5mph /  5.6km/h 91% 0.00in /  0mm WeatherDisplay:10.37 W/m2 CLR
01:20 41.3 °F /  5.2 °C 39.2 °F /  4 °C 29.67in /  1004.6hPa South 2.3mph /  3.7km/h 2.3mph /  3.7km/h 92% 0.00in /  0mm WeatherDisplay:10.37 W/m2 CLR
01:25 41.3 °F /  5.2 °C 39.2 °F /  4 °C 29.67in /  1004.6hPa SSW 5.0mph /  8km/h 5.0mph /  8km/h 92% 0.00in /  0mm WeatherDisplay:10.37 W/m2 CLR
01:30 41.3 °F /  5.2 °C 39.2 °F /  4 °C 29.68in /  1005hPa SSW 4.6mph /  7.4km/h 4.6mph /  7.4km/h 92% 0.00in /  0mm WeatherDisplay:10.37 W/m2 CLR
01:35 41.3 °F /  5.2 °C 38.9 °F /  3.8 °C 29.67in /  1004.6hPa NNE 6.9mph /  11.1km/h 6.9mph /  11.1km/h 91% 0.00in /  0mm WeatherDisplay:10.37 W/m2 CLR
01:40 41.3 °F /  5.2 °C 39.2 °F /  4 °C 29.68in /  1005hPa WSW 2.3mph /  3.7km/h 2.3mph /  3.7km/h 92% 0.00in /  0mm WeatherDisplay:10.37 W/m2 CLR
01:45 41.3 °F /  5.2 °C 39.2 °F /  4 °C 29.68in /  1005hPa SSW 6.9mph /  11.1km/h 6.9mph /  11.1km/h 92% 0.00in /  0mm WeatherDisplay:10.37 W/m2 CLR
01:50 41.3 °F /  5.2 °C 39.2 °F /  4 °C 29.68in /  1005hPa SSW 7.0mph /  11.3km/h 7.0mph /  11.3km/h 92% 0.00in /  0mm WeatherDisplay:10.37 W/m2 CLR
01:55 41.2 °F /  5.1 °C 39.1 °F /  3.9 °C 29.68in /  1005hPa SSW 1.0mph /  1.6km/h 7.0mph /  11.3km/h 92% 0.00in /  0mm WeatherDisplay:10.37 W/m2 CLR
02:00 41.1 °F /  5.1 °C 39.0 °F /  3.9 °C 29.68in /  1005hPa ENE 6.9mph /  11.1km/h 6.9mph /  11.1km/h 92% 0.00in /  0mm WeatherDisplay:10.37 W/m2 CLR
02:05 41.1 °F /  5.1 °C 39.2 °F /  4 °C 29.68in /  1005hPa NE 1.0mph /  1.6km/h 8.0mph /  12.9km/h 93% 0.00in /  0mm WeatherDisplay:10.37 W/m2 CLR
02:10 41.0 °F /  5 °C 39.1 °F /  3.9 °C 29.68in /  1005hPa SSW 3.5mph /  5.6km/h 3.5mph /  5.6km/h 93% 0.00in /  0mm WeatherDisplay:10.37 W/m2 CLR
02:15 40.9 °F /  4.9 °C 39.0 °F /  3.9 °C 29.68in /  1005hPa West 3.5mph /  5.6km/h 3.5mph /  5.6km/h 93% 0.00in /  0mm WeatherDisplay:10.37 W/m2 CLR
02:20 40.9 °F /  4.9 °C 39.0 °F /  3.9 °C 29.68in /  1005hPa SSE 9.0mph /  14.5km/h 9.0mph /  14.5km/h 93% 0.00in /  0mm WeatherDisplay:10.37 W/m2 CLR
02:25 40.9 °F /  4.9 °C 39.3 °F /  4.1 °C 29.68in /  1005hPa SW 2.0mph /  3.2km/h 10.0mph /  16.1km/h 94% 0.00in /  0mm WeatherDisplay:10.37 W/m2 CLR
02:30 40.8 °F /  4.9 °C 38.9 °F /  3.8 °C 29.68in /  1005hPa South 8.0mph /  12.9km/h 8.0mph /  12.9km/h 93% 0.00in /  0mm WeatherDisplay:10.37 W/m2 CLR
02:35 40.8 °F /  4.9 °C 38.9 °F /  3.8 °C 29.69in /  1005.3hPa SW 1.0mph /  1.6km/h 8.0mph /  12.9km/h 93% 0.00in /  0mm WeatherDisplay:10.37 W/m2 CLR
02:40 40.8 °F /  4.9 °C 38.9 °F /  3.8 °C 29.69in /  1005.3hPa NNW 1.2mph /  1.9km/h 1.2mph /  1.9km/h 93% 0.00in /  0mm WeatherDisplay:10.37 W/m2 CLR
02:45 40.8 °F /  4.9 °C 39.2 °F /  4 °C 29.69in /  1005.3hPa SE 3.5mph /  5.6km/h 3.5mph /  5.6km/h 94% 0.00in /  0mm WeatherDisplay:10.37 W/m2 CLR
02:50 40.7 °F /  4.8 °C 38.8 °F /  3.8 °C 29.69in /  1005.3hPa SW 3.0mph /  4.8km/h 8.0mph /  12.9km/h 93% 0.00in /  0mm WeatherDisplay:10.37 W/m2 CLR
02:55 40.6 °F /  4.8 °C 39.0 °F /  3.9 °C 29.69in /  1005.3hPa SW 2.0mph /  3.2km/h 8.0mph /  12.9km/h 94% 0.00in /  0mm WeatherDisplay:10.37 W/m2 CLR
03:00 40.6 °F /  4.8 °C 38.7 °F /  3.7 °C 29.69in /  1005.3hPa SW 5.0mph /  8km/h 15.0mph /  24.1km/h 93% 0.00in /  0mm WeatherDisplay:10.37 W/m2 CLR
03:05 40.5 °F /  4.7 °C 38.9 °F /  3.8 °C 29.70in /  1005.6hPa South 7.0mph /  11.3km/h 13.0mph /  20.9km/h 94% 0.00in /  0mm WeatherDisplay:10.37 W/m2 CLR
03:10 40.5 °F /  4.7 °C 38.9 °F /  3.8 °C 29.70in /  1005.6hPa South 1.0mph /  1.6km/h 5.0mph /  8km/h 94% 0.00in /  0mm WeatherDisplay:10.37 W/m2 CLR
03:15 40.5 °F /  4.7 °C 38.9 °F /  3.8 °C 29.70in /  1005.6hPa Calm   4.0mph /  6.4km/h 94% 0.00in /  0mm WeatherDisplay:10.37 W/m2 CLR
03:20 40.5 °F /  4.7 °C 38.9 °F /  3.8 °C 29.70in /  1005.6hPa WSW 5.0mph /  8km/h 12.0mph /  19.3km/h 94% 0.00in /  0mm WeatherDisplay:10.37 W/m2 CLR
03:25 40.5 °F /  4.7 °C 38.9 °F /  3.8 °C 29.70in /  1005.6hPa South 1.0mph /  1.6km/h 10.0mph /  16.1km/h 94% 0.00in /  0mm WeatherDisplay:10.37 W/m2 CLR
03:30 40.5 °F /  4.7 °C 38.9 °F /  3.8 °C 29.71in /  1006hPa SSE 5.0mph /  8km/h 12.0mph /  19.3km/h 94% 0.00in /  0mm WeatherDisplay:10.37 W/m2 CLR
03:35 40.5 °F /  4.7 °C 38.9 °F /  3.8 °C 29.71in /  1006hPa South 8.0mph /  12.9km/h 12.0mph /  19.3km/h 94% 0.00in /  0mm WeatherDisplay:10.37 W/m2 CLR
03:40 40.5 °F /  4.7 °C 38.9 °F /  3.8 °C 29.71in /  1006hPa WSW 2.3mph /  3.7km/h 2.3mph /  3.7km/h 94% 0.00in /  0mm WeatherDisplay:10.37 W/m2 CLR
03:45 40.5 °F /  4.7 °C 38.9 °F /  3.8 °C 29.71in /  1006hPa WSW 4.6mph /  7.4km/h 4.6mph /  7.4km/h 94% 0.00in /  0mm WeatherDisplay:10.37 W/m2 CLR
03:50 40.5 °F /  4.7 °C 38.9 °F /  3.8 °C 29.71in /  1006hPa SSW 9.0mph /  14.5km/h 9.0mph /  14.5km/h 94% 0.00in /  0mm WeatherDisplay:10.37 W/m2 CLR
03:55 40.4 °F /  4.7 °C 38.8 °F /  3.8 °C 29.72in /  1006.3hPa East 3.5mph /  5.6km/h 3.5mph /  5.6km/h 94% 0.00in /  0mm WeatherDisplay:10.37 W/m2 CLR
04:00 40.4 °F /  4.7 °C 38.8 °F /  3.8 °C 29.72in /  1006.3hPa South 4.0mph /  6.4km/h 4.0mph /  6.4km/h 94% 0.00in /  0mm WeatherDisplay:10.37 W/m2 CLR
04:05 40.4 °F /  4.7 °C 38.8 °F /  3.8 °C 29.72in /  1006.3hPa WSW 2.0mph /  3.2km/h 2.0mph /  3.2km/h 94% 0.00in /  0mm WeatherDisplay:10.37 W/m2 CLR
04:10 40.4 °F /  4.7 °C 39.1 °F /  3.9 °C 29.72in /  1006.3hPa SSW 3.0mph /  4.8km/h 4.6mph /  7.4km/h 95% 0.00in /  0mm WeatherDisplay:10.37 W/m2 CLR
04:15 40.3 °F /  4.6 °C 38.7 °F /  3.7 °C 29.72in /  1006.3hPa SSW 8.0mph /  12.9km/h 8.0mph /  12.9km/h 94% 0.00in /  0mm WeatherDisplay:10.37 W/m2 CLR
04:20 40.2 °F /  4.6 °C 38.6 °F /  3.7 °C 29.72in /  1006.3hPa SSW 10.4mph /  16.7km/h 10.4mph /  16.7km/h 94% 0.00in /  0mm WeatherDisplay:10.37 W/m2 CLR
04:25 40.2 °F /  4.6 °C 38.6 °F /  3.7 °C 29.73in /  1006.7hPa NE 3.5mph /  5.6km/h 3.5mph /  5.6km/h 94% 0.00in /  0mm WeatherDisplay:10.37 W/m2 CLR
04:30 40.2 °F /  4.6 °C 38.6 °F /  3.7 °C 29.73in /  1006.7hPa ESE 3.5mph /  5.6km/h 3.5mph /  5.6km/h 94% 0.00in /  0mm WeatherDisplay:10.37 W/m2 CLR
04:35 40.2 °F /  4.6 °C 38.6 °F /  3.7 °C 29.73in /  1006.7hPa SSW 3.5mph /  5.6km/h 3.5mph /  5.6km/h 94% 0.00in /  0mm WeatherDisplay:10.37 W/m2 CLR
04:40 40.2 °F /  4.6 °C 38.6 °F /  3.7 °C 29.73in /  1006.7hPa SW 5.0mph /  8km/h 5.0mph /  8km/h 94% 0.00in /  0mm WeatherDisplay:10.37 W/m2 CLR
04:45 40.2 °F /  4.6 °C 38.6 °F /  3.7 °C 29.74in /  1007hPa ESE 3.5mph /  5.6km/h 5.2mph /  8.4km/h 94% 0.00in /  0mm WeatherDisplay:10.37 W/m2 CLR
04:50 40.1 °F /  4.5 °C 38.5 °F /  3.6 °C 29.74in /  1007hPa SW 13.8mph /  22.2km/h 13.8mph /  22.2km/h 94% 0.00in /  0mm WeatherDisplay:10.37 W/m2 CLR
04:55 40.1 °F /  4.5 °C 38.5 °F /  3.6 °C 29.74in /  1007hPa South 3.5mph /  5.6km/h 3.5mph /  5.6km/h 94% 0.00in /  0mm WeatherDisplay:10.37 W/m2 CLR
05:00 40.1 °F /  4.5 °C 38.5 °F /  3.6 °C 29.74in /  1007hPa SSW 5.8mph /  9.3km/h 5.8mph /  9.3km/h 94% 0.00in /  0mm WeatherDisplay:10.37 W/m2 CLR
05:05 40.0 °F /  4.4 °C 38.4 °F /  3.6 °C 29.74in /  1007hPa SSW 4.6mph /  7.4km/h 4.6mph /  7.4km/h 94% 0.00in /  0mm WeatherDisplay:10.37 W/m2 CLR
05:10 40.0 °F /  4.4 °C 38.4 °F /  3.6 °C 29.74in /  1007hPa SSE 4.0mph /  6.4km/h 4.0mph /  6.4km/h 94% 0.00in /  0mm WeatherDisplay:10.37 W/m2 CLR
05:15 40.0 °F /  4.4 °C 38.4 °F /  3.6 °C 29.74in /  1007hPa East 2.3mph /  3.7km/h 2.3mph /  3.7km/h 94% 0.00in /  0mm WeatherDisplay:10.37 W/m2 CLR
05:20 40.0 °F /  4.4 °C 38.7 °F /  3.7 °C 29.74in /  1007hPa SSW 8.1mph /  13km/h 8.1mph /  13km/h 95% 0.00in /  0mm WeatherDisplay:10.37 W/m2 CLR
05:25 40.0 °F /  4.4 °C 38.7 °F /  3.7 °C 29.74in /  1007hPa SSW 2.3mph /  3.7km/h 2.3mph /  3.7km/h 95% 0.00in /  0mm WeatherDisplay:10.37 W/m2 CLR
05:30 40.1 °F /  4.5 °C 38.8 °F /  3.8 °C 29.75in /  1007.3hPa SSW 8.1mph /  13km/h 8.1mph /  13km/h 95% 0.00in /  0mm WeatherDisplay:10.37 W/m2 CLR
05:35 40.1 °F /  4.5 °C 38.8 °F /  3.8 °C 29.75in /  1007.3hPa SSW 5.8mph /  9.3km/h 5.8mph /  9.3km/h 95% 0.00in /  0mm WeatherDisplay:10.37 W/m2 CLR
05:40 40.1 °F /  4.5 °C 38.8 °F /  3.8 °C 29.75in /  1007.3hPa South 3.0mph /  4.8km/h 3.0mph /  4.8km/h 95% 0.00in /  0mm WeatherDisplay:10.37 W/m2 CLR
05:45 40.1 °F /  4.5 °C 38.8 °F /  3.8 °C 29.75in /  1007.3hPa West 6.0mph /  9.7km/h 6.0mph /  9.7km/h 95% 0.00in /  0mm WeatherDisplay:10.37 W/m2 CLR
05:50 40.1 °F /  4.5 °C 38.8 °F /  3.8 °C 29.76in /  1007.7hPa SSE 3.5mph /  5.6km/h 3.5mph /  5.6km/h 95% 0.00in /  0mm WeatherDisplay:10.37 W/m2 CLR
05:55 40.1 °F /  4.5 °C 38.5 °F /  3.6 °C 29.76in /  1007.7hPa SSW 3.5mph /  5.6km/h 3.5mph /  5.6km/h 94% 0.00in /  0mm WeatherDisplay:10.37 W/m2 CLR
06:00 40.1 °F /  4.5 °C 38.5 °F /  3.6 °C 29.76in /  1007.7hPa ESE 3.5mph /  5.6km/h 3.5mph /  5.6km/h 94% 0.00in /  0mm WeatherDisplay:10.37 W/m2 CLR
06:05 40.0 °F /  4.4 °C 38.4 °F /  3.6 °C 29.76in /  1007.7hPa ENE 3.5mph /  5.6km/h 3.5mph /  5.6km/h 94% 0.00in /  0mm WeatherDisplay:10.37 W/m2 CLR
06:10 40.1 °F /  4.5 °C 38.5 °F /  3.6 °C 29.76in /  1007.7hPa SW 2.3mph /  3.7km/h 2.3mph /  3.7km/h 94% 0.00in /  0mm WeatherDisplay:10.37 W/m2 CLR
06:15 40.1 °F /  4.5 °C 38.8 °F /  3.8 °C 29.76in /  1007.7hPa SW 1.2mph /  1.9km/h 1.2mph /  1.9km/h 95% 0.00in /  0mm WeatherDisplay:10.37 W/m2 CLR
06:20 40.0 °F /  4.4 °C 38.7 °F /  3.7 °C 29.77in /  1008hPa SW 2.3mph /  3.7km/h 2.3mph /  3.7km/h 95% 0.00in /  0mm WeatherDisplay:10.37 W/m2 CLR
06:25 40.0 °F /  4.4 °C 38.4 °F /  3.6 °C 29.77in /  1008hPa ESE 2.3mph /  3.7km/h 2.3mph /  3.7km/h 94% 0.00in /  0mm WeatherDisplay:10.37 W/m2 CLR
06:30 40.0 °F /  4.4 °C 38.4 °F /  3.6 °C 29.77in /  1008hPa SSW 3.5mph /  5.6km/h 3.5mph /  5.6km/h 94% 0.00in /  0mm WeatherDisplay:10.37 W/m2 CLR
06:35 40.0 °F /  4.4 °C 38.4 °F /  3.6 °C 29.77in /  1008hPa SSW 5.8mph /  9.3km/h 5.8mph /  9.3km/h 94% 0.00in /  0mm WeatherDisplay:10.37 W/m2 CLR
06:40 40.0 °F /  4.4 °C 38.7 °F /  3.7 °C 29.77in /  1008hPa WNW 2.3mph /  3.7km/h 2.3mph /  3.7km/h 95% 0.00in /  0mm WeatherDisplay:10.37 W/m2 CLR
06:45 40.0 °F /  4.4 °C 38.7 °F /  3.7 °C 29.77in /  1008hPa SSW 3.5mph /  5.6km/h 3.5mph /  5.6km/h 95% 0.00in /  0mm WeatherDisplay:10.37 W/m2 CLR
06:50 40.0 °F /  4.4 °C 38.7 °F /  3.7 °C 29.77in /  1008hPa SSW 2.3mph /  3.7km/h 2.3mph /  3.7km/h 95% 0.01in /  0.25mm WeatherDisplay:10.37 W/m2 RA
06:55 40.1 °F /  4.5 °C 38.8 °F /  3.8 °C 29.78in /  1008.4hPa WSW 3.5mph /  5.6km/h 3.5mph /  5.6km/h 95% 0.01in /  0.25mm WeatherDisplay:10.37 W/m2 RA
07:00 40.1 °F /  4.5 °C 38.5 °F /  3.6 °C 29.78in /  1008.4hPa SSE 2.3mph /  3.7km/h 2.3mph /  3.7km/h 94% 0.01in /  0.25mm WeatherDisplay:10.37 W/m2
07:05 40.2 °F /  4.6 °C 38.6 °F /  3.7 °C 29.78in /  1008.4hPa SSE 3.5mph /  5.6km/h 3.5mph /  5.6km/h 94% 0.01in /  0.25mm WeatherDisplay:10.37 W/m2
07:10 40.2 °F /  4.6 °C 38.6 °F /  3.7 °C 29.78in /  1008.4hPa SW 4.6mph /  7.4km/h 4.6mph /  7.4km/h 94% 0.01in /  0.25mm WeatherDisplay:10.37 W/m2
07:15 40.2 °F /  4.6 °C 38.6 °F /  3.7 °C 29.79in /  1008.7hPa ESE 2.3mph /  3.7km/h 2.3mph /  3.7km/h 94% 0.01in /  0.25mm WeatherDisplay:10.37 W/m2
07:20 40.2 °F /  4.6 °C 38.6 °F /  3.7 °C 29.79in /  1008.7hPa SSE 1.2mph /  1.9km/h 1.2mph /  1.9km/h 94% 0.01in /  0.25mm WeatherDisplay:10.37 W/m2
07:25 40.3 °F /  4.6 °C 38.7 °F /  3.7 °C 29.79in /  1008.7hPa SSW 9.2mph /  14.8km/h 9.2mph /  14.8km/h 94% 0.01in /  0.25mm WeatherDisplay:10.37 W/m2
07:30 40.2 °F /  4.6 °C 38.6 °F /  3.7 °C 29.79in /  1008.7hPa SW 3.5mph /  5.6km/h 3.5mph /  5.6km/h 94% 0.01in /  0.25mm WeatherDisplay:10.37 W/m2
07:35 40.3 °F /  4.6 °C 38.7 °F /  3.7 °C 29.79in /  1008.7hPa ENE 2.3mph /  3.7km/h 2.3mph /  3.7km/h 94% 0.01in /  0.25mm WeatherDisplay:10.37 W/m2
07:40 40.4 °F /  4.7 °C 38.8 °F /  3.8 °C 29.79in /  1008.7hPa East 2.3mph /  3.7km/h 2.3mph /  3.7km/h 94% 0.01in /  0.25mm WeatherDisplay:10.37 W/m2
07:45 40.5 °F /  4.7 °C 38.9 °F /  3.8 °C 29.79in /  1008.7hPa South 1.2mph /  1.9km/h 1.2mph /  1.9km/h 94% 0.01in /  0.25mm WeatherDisplay:10.37 W/m2
07:50 40.5 °F /  4.7 °C 39.2 °F /  4 °C 29.80in /  1009hPa SSW 3.5mph /  5.6km/h 3.5mph /  5.6km/h 95% 0.00in /  0mm WeatherDisplay:10.37 W/m2 CLR
07:55 40.6 °F /  4.8 °C 39.0 °F /  3.9 °C 29.80in /  1009hPa SW 3.5mph /  5.6km/h 3.5mph /  5.6km/h 94% 0.00in /  0mm WeatherDisplay:10.37 W/m2 CLR
08:00 40.6 °F /  4.8 °C 39.0 °F /  3.9 °C 29.80in /  1009hPa SW 2.3mph /  3.7km/h 2.3mph /  3.7km/h 94% 0.00in /  0mm WeatherDisplay:10.37 W/m2 CLR
08:05 40.6 °F /  4.8 °C 39.0 °F /  3.9 °C 29.80in /  1009hPa South 2.3mph /  3.7km/h 2.3mph /  3.7km/h 94% 0.00in /  0mm WeatherDisplay:10.37 W/m2 CLR
08:10 40.7 °F /  4.8 °C 38.8 °F /  3.8 °C 29.81in /  1009.4hPa ENE 4.0mph /  6.4km/h 4.0mph /  6.4km/h 93% 0.00in /  0mm WeatherDisplay:10.37 W/m2 CLR
08:15 40.7 °F /  4.8 °C 38.8 °F /  3.8 °C 29.81in /  1009.4hPa ENE 3.0mph /  4.8km/h 3.0mph /  4.8km/h 93% 0.00in /  0mm WeatherDisplay:10.37 W/m2 CLR
08:20 40.7 °F /  4.8 °C 38.6 °F /  3.7 °C 29.81in /  1009.4hPa SW 3.5mph /  5.6km/h 3.5mph /  5.6km/h 92% 0.00in /  0mm WeatherDisplay:10.37 W/m2 CLR
08:25 40.7 °F /  4.8 °C 38.8 °F /  3.8 °C 29.81in /  1009.4hPa SW 3.5mph /  5.6km/h 3.5mph /  5.6km/h 93% 0.00in /  0mm WeatherDisplay:10.37 W/m2 CLR
08:30 40.7 °F /  4.8 °C 38.8 °F /  3.8 °C 29.81in /  1009.4hPa East 1.2mph /  1.9km/h 1.2mph /  1.9km/h 93% 0.00in /  0mm WeatherDisplay:10.37 W/m2 CLR
08:35 40.7 °F /  4.8 °C 38.8 °F /  3.8 °C 29.82in /  1009.7hPa ESE 3.5mph /  5.6km/h 3.5mph /  5.6km/h 93% 0.00in /  0mm WeatherDisplay:10.37 W/m2 CLR
08:40 40.7 °F /  4.8 °C 38.8 °F /  3.8 °C 29.82in /  1009.7hPa SSE 2.3mph /  3.7km/h 2.3mph /  3.7km/h 93% 0.00in /  0mm WeatherDisplay:10.37 W/m2 CLR
08:45 40.7 °F /  4.8 °C 38.8 °F /  3.8 °C 29.82in /  1009.7hPa ESE 3.5mph /  5.6km/h 3.5mph /  5.6km/h 93% 0.00in /  0mm WeatherDisplay:10.37 W/m2 CLR
08:50 40.8 °F /  4.9 °C 38.9 °F /  3.8 °C 29.82in /  1009.7hPa SSE 4.6mph /  7.4km/h 4.6mph /  7.4km/h 93% 0.00in /  0mm WeatherDisplay:10.37 W/m2 CLR
08:55 40.8 °F /  4.9 °C 38.9 °F /  3.8 °C 29.82in /  1009.7hPa SSW 1.2mph /  1.9km/h   93% 0.00in /  0mm WeatherDisplay:10.37 W/m2 CLR
09:00 40.9 °F /  4.9 °C 39.0 °F /  3.9 °C 29.82in /  1009.7hPa South 3.5mph /  5.6km/h 3.5mph /  5.6km/h 93% 0.00in /  0mm WeatherDisplay:10.37 W/m2 CLR
09:05 40.9 °F /  4.9 °C 38.8 °F /  3.8 °C 29.82in /  1009.7hPa NE 3.5mph /  5.6km/h 3.5mph /  5.6km/h 92% 0.00in /  0mm WeatherDisplay:10.37 W/m2 CLR
09:10 41.0 °F /  5 °C 39.1 °F /  3.9 °C 29.82in /  1009.7hPa ESE 1.2mph /  1.9km/h 1.2mph /  1.9km/h 93% 0.00in /  0mm WeatherDisplay:10.37 W/m2 CLR
09:15 41.1 °F /  5.1 °C 39.2 °F /  4 °C 29.82in /  1009.7hPa West 4.6mph /  7.4km/h 4.6mph /  7.4km/h 93% 0.00in /  0mm WeatherDisplay:10.37 W/m2 CLR
09:20 41.2 °F /  5.1 °C 39.1 °F /  3.9 °C 29.82in /  1009.7hPa SW 3.5mph /  5.6km/h 3.5mph /  5.6km/h 92% 0.00in /  0mm WeatherDisplay:10.37 W/m2 CLR
09:25 41.4 °F /  5.2 °C 39.5 °F /  4.2 °C 29.82in /  1009.7hPa SSW 3.5mph /  5.6km/h 3.5mph /  5.6km/h 93% 0.00in /  0mm WeatherDisplay:10.37 W/m2 CLR
09:30 41.6 °F /  5.3 °C 39.7 °F /  4.3 °C 29.82in /  1009.7hPa ESE 4.6mph /  7.4km/h 4.6mph /  7.4km/h 93% 0.00in /  0mm WeatherDisplay:10.37 W/m2 CLR
09:35 41.7 °F /  5.4 °C 39.5 °F /  4.2 °C 29.83in /  1010hPa South 11.0mph /  17.7km/h 11.0mph /  17.7km/h 92% 0.00in /  0mm WeatherDisplay:10.37 W/m2 CLR
09:40 41.8 °F /  5.4 °C 39.6 °F /  4.2 °C 29.83in /  1010hPa West 2.3mph /  3.7km/h 2.3mph /  3.7km/h 92% 0.00in /  0mm WeatherDisplay:10.37 W/m2 CLR
09:45 41.9 °F /  5.5 °C 39.7 °F /  4.3 °C 29.83in /  1010hPa SSW 3.5mph /  5.6km/h 3.5mph /  5.6km/h 92% 0.00in /  0mm WeatherDisplay:10.37 W/m2 CLR
09:50 42.1 °F /  5.6 °C 39.9 °F /  4.4 °C 29.83in /  1010hPa ESE 3.5mph /  5.6km/h 3.5mph /  5.6km/h 92% 0.00in /  0mm WeatherDisplay:10.37 W/m2 CLR
09:55 42.3 °F /  5.7 °C 39.9 °F /  4.4 °C 29.83in /  1010hPa NNW 3.5mph /  5.6km/h 3.5mph /  5.6km/h 91% 0.00in /  0mm WeatherDisplay:10.37 W/m2 CLR
10:00 42.4 °F /  5.8 °C 39.7 °F /  4.3 °C 29.83in /  1010hPa SSW 4.0mph /  6.4km/h 4.0mph /  6.4km/h 90% 0.00in /  0mm WeatherDisplay:10.37 W/m2 CLR
10:05 42.4 °F /  5.8 °C 39.7 °F /  4.3 °C 29.83in /  1010hPa SSW 10.4mph /  16.7km/h 10.4mph /  16.7km/h 90% 0.00in /  0mm WeatherDisplay:10.37 W/m2 CLR
10:10 42.4 °F /  5.8 °C 40.0 °F /  4.4 °C 29.84in /  1010.4hPa East 3.5mph /  5.6km/h 3.5mph /  5.6km/h 91% 0.00in /  0mm WeatherDisplay:10.37 W/m2 CLR
10:15 42.4 °F /  5.8 °C 39.7 °F /  4.3 °C 29.84in /  1010.4hPa West 3.5mph /  5.6km/h 3.5mph /  5.6km/h 90% 0.00in /  0mm WeatherDisplay:10.37 W/m2 CLR
10:20 42.4 °F /  5.8 °C 39.7 °F /  4.3 °C 29.84in /  1010.4hPa SW 9.2mph /  14.8km/h 9.2mph /  14.8km/h 90% 0.00in /  0mm WeatherDisplay:10.37 W/m2 CLR
10:25 42.4 °F /  5.8 °C 39.4 °F /  4.1 °C 29.84in /  1010.4hPa SSE 5.8mph /  9.3km/h 5.8mph /  9.3km/h 89% 0.00in /  0mm WeatherDisplay:10.37 W/m2 CLR
10:30 42.5 °F /  5.8 °C 39.8 °F /  4.3 °C 29.84in /  1010.4hPa SSW 3.5mph /  5.6km/h 3.5mph /  5.6km/h 90% 0.00in /  0mm WeatherDisplay:10.37 W/m2 CLR
10:35 42.6 °F /  5.9 °C 39.9 °F /  4.4 °C 29.84in /  1010.4hPa South 2.3mph /  3.7km/h 2.3mph /  3.7km/h 90% 0.00in /  0mm WeatherDisplay:10.37 W/m2 CLR
10:40 42.7 °F /  5.9 °C 40.0 °F /  4.4 °C 29.85in /  1010.7hPa SE 3.5mph /  5.6km/h 3.5mph /  5.6km/h 90% 0.00in /  0mm WeatherDisplay:10.37 W/m2 CLR
10:45 42.9 °F /  6.1 °C 40.5 °F /  4.7 °C 29.85in /  1010.7hPa South 2.3mph /  3.7km/h 2.3mph /  3.7km/h 91% 0.00in /  0mm WeatherDisplay:10.37 W/m2 CLR
10:50 43.0 °F /  6.1 °C 40.3 °F /  4.6 °C 29.85in /  1010.7hPa SW 6.9mph /  11.1km/h 6.9mph /  11.1km/h 90% 0.00in /  0mm WeatherDisplay:10.37 W/m2 CLR
10:55 43.0 °F /  6.1 °C 40.0 °F /  4.4 °C 29.85in /  1010.7hPa ESE 4.6mph /  7.4km/h 4.6mph /  7.4km/h 89% 0.00in /  0mm WeatherDisplay:10.37 W/m2 CLR
11:00 43.2 °F /  6.2 °C 40.8 °F /  4.9 °C 29.85in /  1010.7hPa SSE 4.0mph /  6.4km/h 4.0mph /  6.4km/h 91% 0.00in /  0mm WeatherDisplay:10.37 W/m2 CLR
11:05 43.3 °F /  6.3 °C 40.0 °F /  4.4 °C 29.85in /  1010.7hPa SSW 9.2mph /  14.8km/h 9.2mph /  14.8km/h 88% 0.00in /  0mm WeatherDisplay:10.37 W/m2 CLR
11:10 43.4 °F /  6.3 °C 40.4 °F /  4.7 °C 29.86in /  1011.1hPa South 6.9mph /  11.1km/h 6.9mph /  11.1km/h 89% 0.00in /  0mm WeatherDisplay:10.37 W/m2 CLR
11:15 43.6 °F /  6.4 °C 40.6 °F /  4.8 °C 29.85in /  1010.7hPa WSW 4.0mph /  6.4km/h 4.0mph /  6.4km/h 89% 0.00in /  0mm WeatherDisplay:10.37 W/m2 CLR
11:20 43.7 °F /  6.5 °C 40.7 °F /  4.8 °C 29.86in /  1011.1hPa SW 5.8mph /  9.3km/h 5.8mph /  9.3km/h 89% 0.00in /  0mm WeatherDisplay:10.37 W/m2 CLR
11:22 43.7 °F /  6.5 °C 40.4 °F /  4.7 °C 29.86in /  1011.1hPa SW 3.5mph /  5.6km/h 3.5mph /  5.6km/h 88% 0.00in /  0mm WeatherDisplay:10.37 W/m2 CLR
11:27 43.9 °F /  6.6 °C 40.6 °F /  4.8 °C 29.86in /  1011.1hPa South 4.6mph /  7.4km/h 4.6mph /  7.4km/h 88% 0.00in /  0mm WeatherDisplay:10.37 W/m2 CLR
11:32 44.1 °F /  6.7 °C 40.8 °F /  4.9 °C 29.86in /  1011.1hPa South 5.0mph /  8km/h 5.0mph /  8km/h 88% 0.00in /  0mm WeatherDisplay:10.37 W/m2 CLR
11:37 44.2 °F /  6.8 °C 40.6 °F /  4.8 °C 29.86in /  1011.1hPa East 4.6mph /  7.4km/h 4.6mph /  7.4km/h 87% 0.00in /  0mm WeatherDisplay:10.37 W/m2 CLR
11:42 44.3 °F /  6.8 °C 40.7 °F /  4.8 °C 29.86in /  1011.1hPa WNW 10.4mph /  16.7km/h 10.4mph /  16.7km/h 87% 0.00in /  0mm WeatherDisplay:10.37 W/m2 CLR
11:47 44.4 °F /  6.9 °C 40.5 °F /  4.7 °C 29.86in /  1011.1hPa WSW 3.5mph /  5.6km/h 3.5mph /  5.6km/h 86% 0.00in /  0mm WeatherDisplay:10.37 W/m2 CLR
11:52 44.4 °F /  6.9 °C 40.5 °F /  4.7 °C 29.87in /  1011.4hPa SE 6.9mph /  11.1km/h 6.9mph /  11.1km/h 86% 0.00in /  0mm WeatherDisplay:10.37 W/m2 CLR
11:57 44.4 °F /  6.9 °C 41.1 °F /  5.1 °C 29.87in /  1011.4hPa West 7.0mph /  11.3km/h 7.0mph /  11.3km/h 88% 0.00in /  0mm WeatherDisplay:10.37 W/m2 CLR
12:02 44.5 °F /  6.9 °C 40.6 °F /  4.8 °C 29.87in /  1011.4hPa South 4.6mph /  7.4km/h 4.6mph /  7.4km/h 86% 0.00in /  0mm WeatherDisplay:10.37 W/m2 CLR
12:07 44.6 °F /  7 °C 41.0 °F /  5 °C 29.87in /  1011.4hPa SW 6.9mph /  11.1km/h 6.9mph /  11.1km/h 87% 0.00in /  0mm WeatherDisplay:10.37 W/m2 CLR
12:12 44.8 °F /  7.1 °C 40.9 °F /  4.9 °C 29.87in /  1011.4hPa NNE 4.6mph /  7.4km/h 4.6mph /  7.4km/h 86% 0.00in /  0mm WeatherDisplay:10.37 W/m2 CLR
12:17 45.2 °F /  7.3 °C 41.0 °F /  5 °C 29.87in /  1011.4hPa SSW 4.6mph /  7.4km/h 4.6mph /  7.4km/h 85% 0.00in /  0mm WeatherDisplay:10.37 W/m2 CLR
12:22 45.3 °F /  7.4 °C 41.1 °F /  5.1 °C 29.87in /  1011.4hPa South 3.5mph /  5.6km/h 3.5mph /  5.6km/h 85% 0.00in /  0mm WeatherDisplay:10.37 W/m2 CLR
12:27 45.3 °F /  7.4 °C 41.1 °F /  5.1 °C 29.87in /  1011.4hPa East 3.5mph /  5.6km/h 3.5mph /  5.6km/h 85% 0.00in /  0mm WeatherDisplay:10.37 W/m2 CLR
12:30 45.2 °F /  7.3 °C 40.7 °F /  4.8 °C 29.87in /  1011.4hPa WSW 10.4mph /  16.7km/h 10.4mph /  16.7km/h 84% 0.00in /  0mm WeatherDisplay:10.37 W/m2 CLR
12:35 45.3 °F /  7.4 °C 41.4 °F /  5.2 °C 29.87in /  1011.4hPa SSW 10.4mph /  16.7km/h 10.4mph /  16.7km/h 86% 0.00in /  0mm WeatherDisplay:10.37 W/m2 CLR
12:40 45.3 °F /  7.4 °C 41.1 °F /  5.1 °C 29.87in /  1011.4hPa South 3.5mph /  5.6km/h 3.5mph /  5.6km/h 85% 0.00in /  0mm WeatherDisplay:10.37 W/m2 CLR
12:45 45.4 °F /  7.4 °C 40.8 °F /  4.9 °C 29.88in /  1011.7hPa WNW 4.6mph /  7.4km/h 4.6mph /  7.4km/h 84% 0.00in /  0mm WeatherDisplay:10.37 W/m2 CLR
12:50 45.5 °F /  7.5 °C 40.9 °F /  4.9 °C 29.88in /  1011.7hPa SW 6.9mph /  11.1km/h 6.9mph /  11.1km/h 84% 0.00in /  0mm WeatherDisplay:10.37 W/m2 CLR
12:55 45.7 °F /  7.6 °C 40.8 °F /  4.9 °C 29.88in /  1011.7hPa SW 10.4mph /  16.7km/h 10.4mph /  16.7km/h 83% 0.00in /  0mm WeatherDisplay:10.37 W/m2 CLR
13:00 46.1 °F /  7.8 °C 41.2 °F /  5.1 °C 29.88in /  1011.7hPa South 6.9mph /  11.1km/h 6.9mph /  11.1km/h 83% 0.00in /  0mm WeatherDisplay:10.37 W/m2 CLR
13:05 46.4 °F /  8 °C 41.9 °F /  5.5 °C 29.88in /  1011.7hPa SSW 5.0mph /  8km/h 9.0mph /  14.5km/h 84% 0.00in /  0mm WeatherDisplay:10.37 W/m2 CLR
13:10 47.1 °F /  8.4 °C 42.5 °F /  5.8 °C 29.88in /  1011.7hPa SW 7.0mph /  11.3km/h 7.0mph /  11.3km/h 84% 0.00in /  0mm WeatherDisplay:10.37 W/m2 CLR
13:15 47.4 °F /  8.6 °C 41.9 °F /  5.5 °C 29.88in /  1011.7hPa ESE 4.6mph /  7.4km/h 4.6mph /  7.4km/h 81% 0.00in /  0mm WeatherDisplay:10.37 W/m2 CLR
13:20 47.3 °F /  8.5 °C 41.4 °F /  5.2 °C 29.88in /  1011.7hPa SSE 6.9mph /  11.1km/h 6.9mph /  11.1km/h 80% 0.00in /  0mm WeatherDisplay:10.37 W/m2 CLR
13:25 46.9 °F /  8.3 °C 41.4 °F /  5.2 °C 29.88in /  1011.7hPa SW 10.4mph /  16.7km/h 10.4mph /  16.7km/h 81% 0.00in /  0mm WeatherDisplay:10.37 W/m2 CLR
13:30 46.7 °F /  8.2 °C 41.2 °F /  5.1 °C 29.88in /  1011.7hPa SSW 3.5mph /  5.6km/h 3.5mph /  5.6km/h 81% 0.00in /  0mm WeatherDisplay:10.37 W/m2 CLR
13:35 46.7 °F /  8.2 °C 41.8 °F /  5.4 °C 29.88in /  1011.7hPa SW 6.9mph /  11.1km/h 6.9mph /  11.1km/h 83% 0.00in /  0mm WeatherDisplay:10.37 W/m2 CLR
13:40 46.8 °F /  8.2 °C 41.3 °F /  5.2 °C 29.88in /  1011.7hPa WNW 4.6mph /  7.4km/h 4.6mph /  7.4km/h 81% 0.00in /  0mm WeatherDisplay:10.37 W/m2 CLR
13:45 46.9 °F /  8.3 °C 42.0 °F /  5.6 °C 29.88in /  1011.7hPa South 2.3mph /  3.7km/h 2.3mph /  3.7km/h 83% 0.00in /  0mm WeatherDisplay:10.37 W/m2 CLR
13:50 46.8 °F /  8.2 °C 41.9 °F /  5.5 °C 29.88in /  1011.7hPa SSW 2.3mph /  3.7km/h 2.3mph /  3.7km/h 83% 0.00in /  0mm WeatherDisplay:10.37 W/m2 CLR
13:55 46.6 °F /  8.1 °C 42.3 °F /  5.7 °C 29.88in /  1011.7hPa WNW 2.3mph /  3.7km/h 2.3mph /  3.7km/h 85% 0.00in /  0mm WeatherDisplay:10.37 W/m2 CLR
14:00 46.3 °F /  7.9 °C 42.0 °F /  5.6 °C 29.88in /  1011.7hPa ENE 4.6mph /  7.4km/h 4.6mph /  7.4km/h 85% 0.00in /  0mm WeatherDisplay:10.37 W/m2 CLR
14:05 46.2 °F /  7.9 °C 41.9 °F /  5.5 °C 29.88in /  1011.7hPa South 6.9mph /  11.1km/h 6.9mph /  11.1km/h 85% 0.00in /  0mm WeatherDisplay:10.37 W/m2 CLR
14:10 46.2 °F /  7.9 °C 42.2 °F /  5.7 °C 29.88in /  1011.7hPa South 5.8mph /  9.3km/h 5.8mph /  9.3km/h 86% 0.00in /  0mm WeatherDisplay:10.37 W/m2 CLR
14:15 46.4 °F /  8 °C 42.1 °F /  5.6 °C 29.88in /  1011.7hPa SSE 3.5mph /  5.6km/h 3.5mph /  5.6km/h 85% 0.00in /  0mm WeatherDisplay:10.37 W/m2 CLR
14:20 46.8 °F /  8.2 °C 42.2 °F /  5.7 °C 29.88in /  1011.7hPa SW 5.0mph /  8km/h 5.0mph /  8km/h 84% 0.00in /  0mm WeatherDisplay:10.37 W/m2 CLR
14:25 47.4 °F /  8.6 °C 42.2 °F /  5.7 °C 29.89in /  1012.1hPa SSW 12.7mph /  20.4km/h 12.7mph /  20.4km/h 82% 0.00in /  0mm WeatherDisplay:10.37 W/m2 CLR
14:30 47.8 °F /  8.8 °C 42.6 °F /  5.9 °C 29.89in /  1012.1hPa SSW 5.8mph /  9.3km/h 5.8mph /  9.3km/h 82% 0.00in /  0mm WeatherDisplay:10.37 W/m2 CLR
14:35 48.1 °F /  8.9 °C 41.9 °F /  5.5 °C 29.89in /  1012.1hPa SSW 10.4mph /  16.7km/h 10.4mph /  16.7km/h 79% 0.00in /  0mm WeatherDisplay:10.37 W/m2 CLR
14:40 47.9 °F /  8.8 °C 41.0 °F /  5 °C 29.89in /  1012.1hPa South 16.1mph /  25.9km/h 16.1mph /  25.9km/h 77% 0.00in /  0mm WeatherDisplay:10.37 W/m2 CLR
14:45 47.8 °F /  8.8 °C 41.3 °F /  5.2 °C 29.89in /  1012.1hPa SSW 8.1mph /  13km/h 8.1mph /  13km/h 78% 0.00in /  0mm WeatherDisplay:10.37 W/m2 CLR
14:50 47.8 °F /  8.8 °C 41.9 °F /  5.5 °C 29.90in /  1012.4hPa South 6.0mph /  9.7km/h 6.0mph /  9.7km/h 80% 0.00in /  0mm WeatherDisplay:10.37 W/m2 CLR
14:55 47.8 °F /  8.8 °C 41.3 °F /  5.2 °C 29.89in /  1012.1hPa SSE 8.1mph /  13km/h 8.1mph /  13km/h 78% 0.00in /  0mm WeatherDisplay:10.37 W/m2 CLR
15:00 48.0 °F /  8.9 °C 41.5 °F /  5.3 °C 29.89in /  1012.1hPa West 6.9mph /  11.1km/h 6.9mph /  11.1km/h 78% 0.00in /  0mm WeatherDisplay:10.37 W/m2 CLR
15:05 48.2 °F /  9 °C 42.6 °F /  5.9 °C 29.89in /  1012.1hPa WSW 6.9mph /  11.1km/h 6.9mph /  11.1km/h 81% 0.00in /  0mm WeatherDisplay:10.37 W/m2 CLR
15:10 48.3 °F /  9.1 °C 42.1 °F /  5.6 °C 29.90in /  1012.4hPa WSW 4.6mph /  7.4km/h 4.6mph /  7.4km/h 79% 0.00in /  0mm WeatherDisplay:10.37 W/m2 CLR
15:15 48.5 °F /  9.2 °C 41.6 °F /  5.3 °C 29.90in /  1012.4hPa SSW 5.8mph /  9.3km/h 5.8mph /  9.3km/h 77% 0.00in /  0mm WeatherDisplay:10.37 W/m2 CLR
15:20 48.3 °F /  9.1 °C 41.1 °F /  5.1 °C 29.90in /  1012.4hPa WSW 8.1mph /  13km/h 8.1mph /  13km/h 76% 0.00in /  0mm WeatherDisplay:10.37 W/m2 CLR
15:25 48.1 °F /  8.9 °C 40.9 °F /  4.9 °C 29.90in /  1012.4hPa WSW 11.5mph /  18.5km/h 11.5mph /  18.5km/h 76% 0.00in /  0mm WeatherDisplay:10.37 W/m2 CLR
15:30 47.8 °F /  8.8 °C 40.6 °F /  4.8 °C 29.90in /  1012.4hPa East 3.5mph /  5.6km/h 3.5mph /  5.6km/h 76% 0.00in /  0mm WeatherDisplay:10.37 W/m2 CLR
15:35 47.7 °F /  8.7 °C 41.8 °F /  5.4 °C 29.89in /  1012.1hPa South 4.6mph /  7.4km/h 4.6mph /  7.4km/h 80% 0.00in /  0mm WeatherDisplay:10.37 W/m2 CLR
15:40 47.6 °F /  8.7 °C 41.4 °F /  5.2 °C 29.90in /  1012.4hPa NW 6.9mph /  11.1km/h 6.9mph /  11.1km/h 79% 0.00in /  0mm WeatherDisplay:10.37 W/m2 CLR
15:45 48.3 °F /  9.1 °C 43.4 °F /  6.3 °C 29.90in /  1012.4hPa SSW 5.0mph /  8km/h 5.0mph /  8km/h 83% 0.00in /  0mm WeatherDisplay:10.37 W/m2 CLR
15:50 49.2 °F /  9.6 °C 42.3 °F /  5.7 °C 29.90in /  1012.4hPa SSW 4.6mph /  7.4km/h 4.6mph /  7.4km/h 77% 0.00in /  0mm WeatherDisplay:10.37 W/m2 CLR
15:55 49.6 °F /  9.8 °C 42.3 °F /  5.7 °C 29.90in /  1012.4hPa SW 5.0mph /  8km/h 5.0mph /  8km/h 76% 0.00in /  0mm WeatherDisplay:10.37 W/m2 CLR
16:00 49.7 °F /  9.8 °C 42.4 °F /  5.8 °C 29.90in /  1012.4hPa SSE 5.8mph /  9.3km/h 5.8mph /  9.3km/h 76% 0.00in /  0mm WeatherDisplay:10.37 W/m2 CLR
16:05 49.9 °F /  9.9 °C 42.6 °F /  5.9 °C 29.90in /  1012.4hPa South 6.0mph /  9.7km/h 6.0mph /  9.7km/h 76% 0.00in /  0mm WeatherDisplay:10.37 W/m2 CLR
16:10 50.1 °F /  10.1 °C 42.8 °F /  6 °C 29.90in /  1012.4hPa SSW 3.0mph /  4.8km/h 3.0mph /  4.8km/h 76% 0.00in /  0mm WeatherDisplay:10.37 W/m2 CLR
16:15 50.0 °F /  10 °C 43.1 °F /  6.2 °C 29.90in /  1012.4hPa SSW 4.6mph /  7.4km/h 4.6mph /  7.4km/h 77% 0.00in /  0mm WeatherDisplay:10.37 W/m2 CLR
16:20 49.5 °F /  9.7 °C 42.2 °F /  5.7 °C 29.90in /  1012.4hPa South 11.5mph /  18.5km/h 11.5mph /  18.5km/h 76% 0.00in /  0mm WeatherDisplay:10.37 W/m2 CLR
16:25 48.8 °F /  9.3 °C 42.2 °F /  5.7 °C 29.90in /  1012.4hPa WSW 6.9mph /  11.1km/h 6.9mph /  11.1km/h 78% 0.00in /  0mm WeatherDisplay:10.37 W/m2 CLR
16:30 48.4 °F /  9.1 °C 41.9 °F /  5.5 °C 29.91in /  1012.8hPa WSW 8.1mph /  13km/h 8.1mph /  13km/h 78% 0.00in /  0mm WeatherDisplay:10.37 W/m2 CLR
16:35 47.7 °F /  8.7 °C 41.8 °F /  5.4 °C 29.91in /  1012.8hPa SW 6.9mph /  11.1km/h 6.9mph /  11.1km/h 80% 0.01in /  0.25mm WeatherDisplay:10.37 W/m2 RA
16:40 47.1 °F /  8.4 °C 42.2 °F /  5.7 °C 29.91in /  1012.8hPa South 5.0mph /  8km/h 5.0mph /  8km/h 83% 0.01in /  0.25mm WeatherDisplay:10.37 W/m2 RA
16:45 46.8 °F /  8.2 °C 42.2 °F /  5.7 °C 29.92in /  1013.1hPa SSE 6.0mph /  9.7km/h 6.0mph /  9.7km/h 84% 0.01in /  0.25mm WeatherDisplay:10.37 W/m2
16:50 47.3 °F /  8.5 °C 43.3 °F /  6.3 °C 29.91in /  1012.8hPa West 3.5mph /  5.6km/h 3.5mph /  5.6km/h 86% 0.01in /  0.25mm WeatherDisplay:10.37 W/m2
16:55 48.2 °F /  9 °C 43.3 °F /  6.3 °C 29.91in /  1012.8hPa South 5.8mph /  9.3km/h 5.8mph /  9.3km/h 83% 0.01in /  0.25mm WeatherDisplay:10.37 W/m2
17:00 48.1 °F /  8.9 °C 42.9 °F /  6.1 °C 29.92in /  1013.1hPa WSW 5.8mph /  9.3km/h 5.8mph /  9.3km/h 82% 0.01in /  0.25mm WeatherDisplay:10.37 W/m2
17:05 48.0 °F /  8.9 °C 42.8 °F /  6 °C 29.92in /  1013.1hPa SSE 4.0mph /  6.4km/h 4.0mph /  6.4km/h 82% 0.01in /  0.25mm WeatherDisplay:10.37 W/m2
17:10 47.8 °F /  8.8 °C 42.9 °F /  6.1 °C 29.92in /  1013.1hPa South 9.0mph /  14.5km/h 9.0mph /  14.5km/h 83% 0.01in /  0.25mm WeatherDisplay:10.37 W/m2
17:15 47.5 °F /  8.6 °C 42.3 °F /  5.7 °C 29.92in /  1013.1hPa NNW 3.5mph /  5.6km/h 3.5mph /  5.6km/h 82% 0.01in /  0.25mm WeatherDisplay:10.37 W/m2
17:20 47.6 °F /  8.7 °C 41.7 °F /  5.4 °C 29.92in /  1013.1hPa SSE 9.2mph /  14.8km/h 9.2mph /  14.8km/h 80% 0.01in /  0.25mm WeatherDisplay:10.37 W/m2
17:25 47.7 °F /  8.7 °C 41.2 °F /  5.1 °C 29.92in /  1013.1hPa West 5.8mph /  9.3km/h 5.8mph /  9.3km/h 78% 0.01in /  0.25mm WeatherDisplay:10.37 W/m2
17:30 47.9 °F /  8.8 °C 41.4 °F /  5.2 °C 29.92in /  1013.1hPa SSW 4.0mph /  6.4km/h 4.0mph /  6.4km/h 78% 0.01in /  0.25mm WeatherDisplay:10.37 W/m2
17:35 48.1 °F /  8.9 °C 41.6 °F /  5.3 °C 29.92in /  1013.1hPa SSW 8.1mph /  13km/h 8.1mph /  13km/h 78% 0.00in /  0mm WeatherDisplay:10.37 W/m2 CLR
17:40 48.5 °F /  9.2 °C 42.9 °F /  6.1 °C 29.92in /  1013.1hPa SE 2.3mph /  3.7km/h 2.3mph /  3.7km/h 81% 0.00in /  0mm WeatherDisplay:10.37 W/m2 CLR
17:45 48.8 °F /  9.3 °C 42.9 °F /  6.1 °C 29.92in /  1013.1hPa SSW 2.3mph /  3.7km/h 2.3mph /  3.7km/h 80% 0.00in /  0mm WeatherDisplay:10.37 W/m2 CLR
17:50 48.7 °F /  9.3 °C 42.5 °F /  5.8 °C 29.93in /  1013.4hPa South 4.0mph /  6.4km/h 4.0mph /  6.4km/h 79% 0.00in /  0mm WeatherDisplay:10.37 W/m2 CLR
17:55 48.5 °F /  9.2 °C 42.6 °F /  5.9 °C 29.93in /  1013.4hPa SSE 10.4mph /  16.7km/h 10.4mph /  16.7km/h 80% 0.00in /  0mm WeatherDisplay:10.37 W/m2 CLR
18:00 48.2 °F /  9 °C 42.6 °F /  5.9 °C 29.93in /  1013.4hPa SSW 11.5mph /  18.5km/h 11.5mph /  18.5km/h 81% 0.00in /  0mm WeatherDisplay:10.37 W/m2 CLR
18:05 47.7 °F /  8.7 °C 42.2 °F /  5.7 °C 29.93in /  1013.4hPa ESE 8.1mph /  13km/h 8.1mph /  13km/h 81% 0.00in /  0mm WeatherDisplay:10.37 W/m2 CLR
18:10 47.2 °F /  8.4 °C 42.0 °F /  5.6 °C 29.93in /  1013.4hPa SSW 3.5mph /  5.6km/h 3.5mph /  5.6km/h 82% 0.00in /  0mm WeatherDisplay:10.37 W/m2 CLR
18:15 46.9 °F /  8.3 °C 41.4 °F /  5.2 °C 29.94in /  1013.8hPa WSW 5.8mph /  9.3km/h 5.8mph /  9.3km/h 81% 0.00in /  0mm WeatherDisplay:10.37 W/m2 CLR
18:20 46.7 °F /  8.2 °C 41.8 °F /  5.4 °C 29.94in /  1013.8hPa SSW 4.6mph /  7.4km/h 4.6mph /  7.4km/h 83% 0.00in /  0mm WeatherDisplay:10.37 W/m2 CLR
18:25 46.5 °F /  8.1 °C 41.9 °F /  5.5 °C 29.94in /  1013.8hPa South 2.3mph /  3.7km/h 2.3mph /  3.7km/h 84% 0.00in /  0mm WeatherDisplay:10.37 W/m2 CLR
18:30 46.5 °F /  8.1 °C 41.9 °F /  5.5 °C 29.94in /  1013.8hPa SSW 6.9mph /  11.1km/h 6.9mph /  11.1km/h 84% 0.00in /  0mm WeatherDisplay:10.37 W/m2 CLR
18:35 46.5 °F /  8.1 °C 42.2 °F /  5.7 °C 29.94in /  1013.8hPa SW 4.0mph /  6.4km/h 4.0mph /  6.4km/h 85% 0.00in /  0mm WeatherDisplay:10.37 W/m2 CLR
18:40 46.5 °F /  8.1 °C 41.6 °F /  5.3 °C 29.94in /  1013.8hPa South 7.0mph /  11.3km/h 7.0mph /  11.3km/h 83% 0.00in /  0mm WeatherDisplay:10.37 W/m2 CLR
18:45 46.6 °F /  8.1 °C 41.7 °F /  5.4 °C 29.94in /  1013.8hPa South 3.5mph /  5.6km/h 3.5mph /  5.6km/h 83% 0.00in /  0mm WeatherDisplay:10.37 W/m2 CLR
18:50 46.7 °F /  8.2 °C 41.8 °F /  5.4 °C 29.94in /  1013.8hPa SSW 8.1mph /  13km/h 8.1mph /  13km/h 83% 0.00in /  0mm WeatherDisplay:10.37 W/m2 CLR
18:55 46.7 °F /  8.2 °C 41.8 °F /  5.4 °C 29.94in /  1013.8hPa SSE 5.0mph /  8km/h 5.0mph /  8km/h 83% 0.00in /  0mm WeatherDisplay:10.37 W/m2 CLR
19:00 46.7 °F /  8.2 °C 41.8 °F /  5.4 °C 29.94in /  1013.8hPa ENE 3.5mph /  5.6km/h 3.5mph /  5.6km/h 83% 0.00in /  0mm WeatherDisplay:10.37 W/m2 CLR
19:05 46.7 °F /  8.2 °C 41.5 °F /  5.3 °C 29.94in /  1013.8hPa South 5.8mph /  9.3km/h 5.8mph /  9.3km/h 82% 0.00in /  0mm WeatherDisplay:10.37 W/m2 CLR
19:10 46.7 °F /  8.2 °C 41.2 °F /  5.1 °C 29.94in /  1013.8hPa SW 3.5mph /  5.6km/h 3.5mph /  5.6km/h 81% 0.00in /  0mm WeatherDisplay:10.37 W/m2 CLR
19:15 46.7 °F /  8.2 °C 40.9 °F /  4.9 °C 29.95in /  1014.1hPa SSW 8.1mph /  13km/h 8.1mph /  13km/h 80% 0.00in /  0mm WeatherDisplay:10.37 W/m2 CLR
19:20 46.7 °F /  8.2 °C 40.9 °F /  4.9 °C 29.95in /  1014.1hPa WSW 3.5mph /  5.6km/h 3.5mph /  5.6km/h 80% 0.00in /  0mm WeatherDisplay:10.37 W/m2 CLR
19:25 46.7 °F /  8.2 °C 40.5 °F /  4.7 °C 29.95in /  1014.1hPa SSW 6.9mph /  11.1km/h 6.9mph /  11.1km/h 79% 0.00in /  0mm WeatherDisplay:10.37 W/m2 CLR
19:30 46.7 °F /  8.2 °C 40.2 °F /  4.6 °C 29.95in /  1014.1hPa SSW 9.2mph /  14.8km/h 9.2mph /  14.8km/h 78% 0.00in /  0mm WeatherDisplay:10.37 W/m2 CLR
19:35 46.7 °F /  8.2 °C 40.2 °F /  4.6 °C 29.95in /  1014.1hPa South 3.5mph /  5.6km/h 3.5mph /  5.6km/h 78% 0.00in /  0mm WeatherDisplay:10.37 W/m2 CLR
19:40 46.6 °F /  8.1 °C 40.1 °F /  4.5 °C 29.95in /  1014.1hPa South 4.6mph /  7.4km/h 4.6mph /  7.4km/h 78% 0.00in /  0mm WeatherDisplay:10.37 W/m2 CLR
19:45 46.6 °F /  8.1 °C 40.1 °F /  4.5 °C 29.95in /  1014.1hPa South 3.5mph /  5.6km/h 3.5mph /  5.6km/h 78% 0.00in /  0mm WeatherDisplay:10.37 W/m2 CLR
19:50 46.5 °F /  8.1 °C 40.3 °F /  4.6 °C 29.95in /  1014.1hPa SSE 2.3mph /  3.7km/h 2.3mph /  3.7km/h 79% 0.00in /  0mm WeatherDisplay:10.37 W/m2 CLR
19:55 46.4 °F /  8 °C 41.2 °F /  5.1 °C 29.96in /  1014.4hPa South 4.0mph /  6.4km/h 4.0mph /  6.4km/h 82% 0.00in /  0mm WeatherDisplay:10.37 W/m2 CLR
20:00 46.3 °F /  7.9 °C 41.4 °F /  5.2 °C 29.96in /  1014.4hPa SSW 5.8mph /  9.3km/h 5.8mph /  9.3km/h 83% 0.00in /  0mm WeatherDisplay:10.37 W/m2 CLR
20:05 46.2 °F /  7.9 °C 41.9 °F /  5.5 °C 29.96in /  1014.4hPa South 7.0mph /  11.3km/h 7.0mph /  11.3km/h 85% 0.00in /  0mm WeatherDisplay:10.37 W/m2 CLR
20:10 46.0 °F /  7.8 °C 41.7 °F /  5.4 °C 29.96in /  1014.4hPa South 3.5mph /  5.6km/h 3.5mph /  5.6km/h 85% 0.00in /  0mm WeatherDisplay:10.37 W/m2 CLR
20:15 45.9 °F /  7.7 °C 41.9 °F /  5.5 °C 29.96in /  1014.4hPa WSW 3.5mph /  5.6km/h 3.5mph /  5.6km/h 86% 0.00in /  0mm WeatherDisplay:10.37 W/m2 CLR
20:20 45.7 °F /  7.6 °C 42.1 °F /  5.6 °C 29.97in /  1014.8hPa SE 6.0mph /  9.7km/h 6.0mph /  9.7km/h 87% 0.00in /  0mm WeatherDisplay:10.37 W/m2 CLR
20:25 45.5 °F /  7.5 °C 41.6 °F /  5.3 °C 29.97in /  1014.8hPa South 5.8mph /  9.3km/h 5.8mph /  9.3km/h 86% 0.00in /  0mm WeatherDisplay:10.37 W/m2 CLR
20:30 45.5 °F /  7.5 °C 41.6 °F /  5.3 °C 29.97in /  1014.8hPa SSE 5.8mph /  9.3km/h 5.8mph /  9.3km/h 86% 0.00in /  0mm WeatherDisplay:10.37 W/m2 CLR
20:35 45.4 °F /  7.4 °C 41.5 °F /  5.3 °C 29.97in /  1014.8hPa South 9.0mph /  14.5km/h 9.0mph /  14.5km/h 86% 0.00in /  0mm WeatherDisplay:10.37 W/m2 CLR
20:40 45.3 °F /  7.4 °C 41.4 °F /  5.2 °C 29.98in /  1015.1hPa SSW 8.1mph /  13km/h 8.1mph /  13km/h 86% 0.00in /  0mm WeatherDisplay:10.37 W/m2 CLR
20:45 45.3 °F /  7.4 °C 41.4 °F /  5.2 °C 29.98in /  1015.1hPa South 3.5mph /  5.6km/h 3.5mph /  5.6km/h 86% 0.00in /  0mm WeatherDisplay:10.37 W/m2 CLR
20:50 45.2 °F /  7.3 °C 41.0 °F /  5 °C 29.98in /  1015.1hPa SW 3.5mph /  5.6km/h 3.5mph /  5.6km/h 85% 0.00in /  0mm WeatherDisplay:10.37 W/m2 CLR
20:55 45.2 °F /  7.3 °C 41.0 °F /  5 °C 29.99in /  1015.5hPa SSW 3.5mph /  5.6km/h 3.5mph /  5.6km/h 85% 0.00in /  0mm WeatherDisplay:10.37 W/m2 CLR
21:00 45.1 °F /  7.3 °C 40.9 °F /  4.9 °C 29.98in /  1015.1hPa SSW 2.3mph /  3.7km/h 2.3mph /  3.7km/h 85% 0.00in /  0mm WeatherDisplay:10.37 W/m2 CLR
21:05 45.1 °F /  7.3 °C 41.2 °F /  5.1 °C 29.99in /  1015.5hPa NW 4.0mph /  6.4km/h 4.0mph /  6.4km/h 86% 0.00in /  0mm WeatherDisplay:10.37 W/m2 CLR
21:10 45.1 °F /  7.3 °C 41.2 °F /  5.1 °C 29.99in /  1015.5hPa SE 3.0mph /  4.8km/h 3.0mph /  4.8km/h 86% 0.00in /  0mm WeatherDisplay:10.37 W/m2 CLR
21:15 45.0 °F /  7.2 °C 40.8 °F /  4.9 °C 29.99in /  1015.5hPa SSW 4.0mph /  6.4km/h 4.0mph /  6.4km/h 85% 0.00in /  0mm WeatherDisplay:10.37 W/m2 CLR
21:20 45.0 °F /  7.2 °C 41.1 °F /  5.1 °C 29.99in /  1015.5hPa SSW 3.5mph /  5.6km/h 3.5mph /  5.6km/h 86% 0.00in /  0mm WeatherDisplay:10.37 W/m2 CLR
21:25 44.9 °F /  7.2 °C 40.7 °F /  4.8 °C 29.99in /  1015.5hPa South 4.6mph /  7.4km/h 4.6mph /  7.4km/h 85% 0.00in /  0mm WeatherDisplay:10.37 W/m2 CLR
21:30 44.8 °F /  7.1 °C 40.6 °F /  4.8 °C 30.00in /  1015.8hPa South 4.6mph /  7.4km/h 4.6mph /  7.4km/h 85% 0.00in /  0mm WeatherDisplay:10.37 W/m2 CLR
21:35 44.7 °F /  7.1 °C 40.5 °F /  4.7 °C 30.00in /  1015.8hPa WSW 6.9mph /  11.1km/h 6.9mph /  11.1km/h 85% 0.00in /  0mm WeatherDisplay:10.37 W/m2 CLR
21:40 44.6 °F /  7 °C 40.7 °F /  4.8 °C 30.00in /  1015.8hPa South 3.5mph /  5.6km/h 3.5mph /  5.6km/h 86% 0.00in /  0mm WeatherDisplay:10.37 W/m2 CLR
21:45 44.6 °F /  7 °C 40.7 °F /  4.8 °C 30.00in /  1015.8hPa South 5.8mph /  9.3km/h 5.8mph /  9.3km/h 86% 0.00in /  0mm WeatherDisplay:10.37 W/m2 CLR
21:50 44.5 °F /  6.9 °C 40.6 °F /  4.8 °C 30.01in /  1016.1hPa SE 5.8mph /  9.3km/h 5.8mph /  9.3km/h 86% 0.00in /  0mm WeatherDisplay:10.37 W/m2 CLR
21:55 44.5 °F /  6.9 °C 40.6 °F /  4.8 °C 30.01in /  1016.1hPa SSW 3.5mph /  5.6km/h 3.5mph /  5.6km/h 86% 0.00in /  0mm WeatherDisplay:10.37 W/m2 CLR
22:00 44.5 °F /  6.9 °C 40.6 °F /  4.8 °C 30.01in /  1016.1hPa SSW 3.5mph /  5.6km/h 3.5mph /  5.6km/h 86% 0.00in /  0mm WeatherDisplay:10.37 W/m2 CLR
22:05 44.4 °F /  6.9 °C 40.5 °F /  4.7 °C 30.01in /  1016.1hPa SSW 3.5mph /  5.6km/h 3.5mph /  5.6km/h 86% 0.00in /  0mm WeatherDisplay:10.37 W/m2 CLR
22:10 44.2 °F /  6.8 °C 40.6 °F /  4.8 °C 30.01in /  1016.1hPa South 2.3mph /  3.7km/h 2.3mph /  3.7km/h 87% 0.00in /  0mm WeatherDisplay:10.37 W/m2 CLR
22:15 44.1 °F /  6.7 °C 40.8 °F /  4.9 °C 30.01in /  1016.1hPa South 2.3mph /  3.7km/h 2.3mph /  3.7km/h 88% 0.00in /  0mm WeatherDisplay:10.37 W/m2 CLR
22:20 43.9 °F /  6.6 °C 40.6 °F /  4.8 °C 30.01in /  1016.1hPa South 3.5mph /  5.6km/h 3.5mph /  5.6km/h 88% 0.00in /  0mm WeatherDisplay:10.37 W/m2 CLR
22:25 43.8 °F /  6.6 °C 40.5 °F /  4.7 °C 30.01in /  1016.1hPa SE 3.5mph /  5.6km/h 3.5mph /  5.6km/h 88% 0.00in /  0mm WeatherDisplay:10.37 W/m2 CLR
22:30 43.8 °F /  6.6 °C 40.5 °F /  4.7 °C 30.02in /  1016.5hPa South 5.8mph /  9.3km/h 5.8mph /  9.3km/h 88% 0.00in /  0mm WeatherDisplay:10.37 W/m2 CLR
22:35 43.9 °F /  6.6 °C 40.3 °F /  4.6 °C 30.02in /  1016.5hPa South 6.9mph /  11.1km/h 6.9mph /  11.1km/h 87% 0.00in /  0mm WeatherDisplay:10.37 W/m2 CLR
22:40 43.9 °F /  6.6 °C 40.3 °F /  4.6 °C 30.02in /  1016.5hPa South 4.6mph /  7.4km/h 4.6mph /  7.4km/h 87% 0.00in /  0mm WeatherDisplay:10.37 W/m2 CLR
22:45 43.9 °F /  6.6 °C 40.3 °F /  4.6 °C 30.02in /  1016.5hPa South 8.1mph /  13km/h 8.1mph /  13km/h 87% 0.00in /  0mm WeatherDisplay:10.37 W/m2 CLR
22:50 43.9 °F /  6.6 °C 40.3 °F /  4.6 °C 30.03in /  1016.8hPa South 3.5mph /  5.6km/h 3.5mph /  5.6km/h 87% 0.00in /  0mm WeatherDisplay:10.37 W/m2 CLR
22:55 43.9 °F /  6.6 °C 40.3 °F /  4.6 °C 30.03in /  1016.8hPa South 4.0mph /  6.4km/h 4.0mph /  6.4km/h 87% 0.00in /  0mm WeatherDisplay:10.37 W/m2 CLR
23:00 44.0 °F /  6.7 °C 40.4 °F /  4.7 °C 30.03in /  1016.8hPa South 2.3mph /  3.7km/h 2.3mph /  3.7km/h 87% 0.00in /  0mm WeatherDisplay:10.37 W/m2 CLR
23:05 44.0 °F /  6.7 °C 40.4 °F /  4.7 °C 30.03in /  1016.8hPa SSW 5.8mph /  9.3km/h 5.8mph /  9.3km/h 87% 0.00in /  0mm WeatherDisplay:10.37 W/m2 CLR
23:10 44.0 °F /  6.7 °C 40.4 °F /  4.7 °C 30.03in /  1016.8hPa SSW 9.2mph /  14.8km/h 9.2mph /  14.8km/h 87% 0.00in /  0mm WeatherDisplay:10.37 W/m2 CLR
23:15 43.9 °F /  6.6 °C 40.3 °F /  4.6 °C 30.03in /  1016.8hPa SSW 4.0mph /  6.4km/h 4.0mph /  6.4km/h 87% 0.00in /  0mm WeatherDisplay:10.37 W/m2 CLR
23:20 43.9 °F /  6.6 °C 40.6 °F /  4.8 °C 30.03in /  1016.8hPa WSW 3.5mph /  5.6km/h 3.5mph /  5.6km/h 88% 0.00in /  0mm WeatherDisplay:10.37 W/m2 CLR
23:25 43.9 °F /  6.6 °C 40.3 °F /  4.6 °C 30.03in /  1016.8hPa SSW 4.6mph /  7.4km/h 4.6mph /  7.4km/h 87% 0.00in /  0mm WeatherDisplay:10.37 W/m2 CLR
23:30 43.9 °F /  6.6 °C 40.0 °F /  4.4 °C 30.04in /  1017.2hPa SSE 6.9mph /  11.1km/h 6.9mph /  11.1km/h 86% 0.00in /  0mm WeatherDisplay:10.37 W/m2 CLR
23:35 43.9 °F /  6.6 °C 40.6 °F /  4.8 °C 30.04in /  1017.2hPa South 5.0mph /  8km/h 5.0mph /  8km/h 88% 0.00in /  0mm WeatherDisplay:10.37 W/m2 CLR
23:40 43.8 °F /  6.6 °C 40.2 °F /  4.6 °C 30.04in /  1017.2hPa SSW 3.5mph /  5.6km/h 3.5mph /  5.6km/h 87% 0.00in /  0mm WeatherDisplay:10.37 W/m2 CLR
23:45 43.8 °F /  6.6 °C 40.2 °F /  4.6 °C 30.04in /  1017.2hPa SSE 3.5mph /  5.6km/h 3.5mph /  5.6km/h 87% 0.00in /  0mm WeatherDisplay:10.37 W/m2 CLR
23:50 43.7 °F /  6.5 °C 40.4 °F /  4.7 °C 30.04in /  1017.2hPa SSW 3.5mph /  5.6km/h 3.5mph /  5.6km/h 88% 0.00in /  0mm WeatherDisplay:10.37 W/m2 CLR
23:55 43.6 °F /  6.4 °C 40.3 °F /  4.6 °C 30.04in /  1017.2hPa SSE 4.0mph /  6.4km/h 4.0mph /  6.4km/h 88% 0.00in /  0mm WeatherDisplay:10.37 W/m2 CLR
VanCam Weather
Compliments of Weather Underground - 4 mb